createdAt,value
2019-04-23T00:00:07.686Z,42.41
2019-04-23T00:01:16.394Z,42.35
2019-04-23T00:02:08.676Z,42.38
2019-04-23T00:03:10.145Z,42.41
2019-04-23T00:04:08.524Z,42.38
2019-04-23T00:05:11.349Z,42.36
2019-04-23T00:06:15.535Z,42.11
2019-04-23T00:07:15.529Z,42.05
2019-04-23T00:08:09.706Z,42.04
2019-04-23T00:09:13.036Z,42.06
2019-04-23T00:10:11.975Z,42.02
2019-04-23T00:11:15.371Z,42.01
2019-04-23T00:12:09.968Z,42.05
2019-04-23T00:13:05.019Z,42.02
2019-04-23T00:14:07.939Z,41.99
2019-04-23T00:15:07.592Z,41.97
2019-04-23T00:16:21.874Z,42.10
2019-04-23T00:17:04.740Z,42.06
2019-04-23T00:18:10.176Z,42.06
2019-04-23T00:19:02.450Z,42.15
2019-04-23T00:20:10.078Z,42.05
2019-04-23T00:21:11.826Z,42.09
2019-04-23T00:22:05.485Z,42.07
2019-04-23T00:23:11.400Z,42.24
2019-04-23T00:24:12.064Z,42.03
2019-04-23T00:25:27.450Z,42.73
2019-04-23T00:26:16.256Z,42.15
2019-04-23T00:27:19.656Z,42.06
2019-04-23T00:30:00.868Z,42.18
2019-04-23T00:31:13.919Z,42.10
2019-04-23T00:32:08.475Z,42.21
2019-04-23T00:33:12.598Z,42.18
2019-04-23T00:34:24.706Z,42.12
2019-04-23T00:35:05.893Z,42.14
2019-04-23T00:36:25.886Z,42.19
2019-04-23T00:37:13.000Z,42.14
2019-04-23T00:38:12.177Z,42.14
2019-04-23T00:39:01.574Z,42.07
2019-04-23T00:40:03.079Z,42.20
2019-04-23T00:41:05.697Z,42.10
2019-04-23T00:42:06.625Z,42.04
2019-04-23T00:43:09.046Z,42.08
2019-04-23T00:44:09.115Z,42.12
2019-04-23T00:45:03.432Z,42.10
2019-04-23T00:46:04.658Z,42.21
2019-04-23T00:47:06.687Z,42.31
2019-04-23T00:48:01.770Z,42.11
2019-04-23T00:49:29.199Z,42.11
2019-04-23T00:50:12.735Z,42.16
2019-04-23T00:50:58.602Z,42.17
2019-04-23T00:52:10.656Z,42.19
2019-04-23T00:53:05.784Z,42.15
2019-04-23T00:54:09.206Z,42.15
2019-04-23T00:55:10.662Z,42.15
2019-04-23T00:56:25.212Z,42.09
2019-04-23T00:57:07.326Z,42.15
2019-04-23T00:58:12.472Z,42.18
2019-04-23T00:59:05.398Z,42.19
2019-04-23T01:00:10.733Z,42.20
2019-04-23T01:01:07.692Z,42.15
2019-04-23T01:02:26.316Z,42.18
2019-04-23T01:03:06.150Z,42.19
2019-04-23T01:04:12.278Z,42.20
2019-04-23T01:05:10.293Z,42.16
2019-04-23T01:06:18.184Z,42.29
2019-04-23T01:07:04.329Z,42.20
2019-04-23T01:08:06.814Z,42.12
2019-04-23T01:09:03.876Z,42.20
2019-04-23T01:10:10.223Z,42.00
2019-04-23T01:11:11.544Z,42.07
2019-04-23T01:12:09.207Z,42.05
2019-04-23T01:13:08.868Z,42.10
2019-04-23T01:14:14.843Z,42.09
2019-04-23T01:15:16.529Z,42.12
2019-04-23T01:16:05.768Z,42.13
2019-04-23T01:17:08.798Z,42.22
2019-04-23T01:18:14.316Z,42.15
2019-04-23T01:19:07.042Z,42.06
2019-04-23T01:20:06.380Z,42.10
2019-04-23T01:20:53.631Z,42.16
2019-04-23T01:21:45.310Z,42.22
2019-04-23T01:22:44.319Z,42.17
2019-04-23T01:23:50.182Z,42.12
2019-04-23T01:24:47.882Z,42.20
2019-04-23T01:25:55.998Z,42.22
2019-04-23T01:27:28.942Z,42.32
2019-04-23T01:28:07.654Z,42.21
2019-04-23T01:29:06.680Z,42.19
2019-04-23T01:30:18.038Z,42.20
2019-04-23T01:31:16.654Z,42.21
2019-04-23T01:32:14.150Z,42.20
2019-04-23T01:33:09.175Z,42.14
2019-04-23T01:34:16.735Z,42.22
2019-04-23T01:36:21.462Z,42.24
2019-04-23T01:37:12.605Z,42.09
2019-04-23T01:38:11.608Z,42.12
2019-04-23T01:39:14.328Z,42.18
2019-04-23T01:40:12.320Z,42.18
2019-04-23T01:41:13.298Z,42.14
2019-04-23T01:42:16.624Z,42.09
2019-04-23T01:43:10.805Z,42.10
2019-04-23T01:44:15.606Z,42.07
2019-04-23T01:45:13.284Z,42.07
2019-04-23T01:46:07.572Z,42.52
2019-04-23T01:47:15.109Z,42.12
2019-04-23T01:48:05.247Z,42.35
2019-04-23T01:49:18.396Z,44.05
2019-04-23T01:50:14.072Z,42.14
2019-04-23T01:51:04.344Z,42.10
2019-04-23T01:52:21.169Z,42.17
2019-04-23T01:53:14.360Z,42.18
2019-04-23T01:54:09.442Z,42.49
2019-04-23T01:55:18.330Z,42.24
2019-04-23T01:56:11.397Z,42.08
2019-04-23T01:57:09.610Z,42.17
2019-04-23T01:58:29.067Z,42.24
2019-04-23T01:59:12.410Z,42.22
2019-04-23T02:00:16.151Z,42.22
2019-04-23T02:01:11.518Z,42.15
2019-04-23T02:02:12.268Z,42.10
2019-04-23T02:03:09.413Z,42.14
2019-04-23T02:04:18.904Z,42.19
2019-04-23T02:05:19.307Z,42.15
2019-04-23T02:07:14.877Z,42.17
2019-04-23T02:08:11.053Z,42.19
2019-04-23T02:09:13.974Z,42.15
2019-04-23T02:11:09.709Z,42.16
2019-04-23T02:12:11.522Z,42.15
2019-04-23T02:14:20.383Z,42.17
2019-04-23T02:15:12.226Z,42.14
2019-04-23T02:17:10.262Z,42.20
2019-04-23T02:18:13.374Z,42.18
2019-04-23T02:20:16.071Z,42.18
2019-04-23T02:21:07.793Z,42.17
2019-04-23T02:22:13.234Z,42.25
2019-04-23T02:23:18.579Z,42.16
2019-04-23T02:24:27.439Z,42.19
2019-04-23T02:25:16.160Z,42.58
2019-04-23T02:26:10.858Z,44.61
2019-04-23T02:27:15.279Z,42.39
2019-04-23T02:28:25.379Z,42.41
2019-04-23T02:29:24.900Z,42.38
2019-04-23T02:30:33.742Z,42.44
2019-04-23T02:31:40.382Z,42.52
2019-04-23T02:32:09.049Z,42.33
2019-04-23T02:34:25.791Z,42.40
2019-04-23T02:35:42.727Z,42.49
2019-04-23T02:36:17.944Z,42.38
2019-04-23T02:37:28.599Z,42.48
2019-04-23T02:39:19.800Z,42.43
2019-04-23T02:41:18.500Z,42.51
2019-04-23T02:44:19.871Z,42.46
2019-04-23T02:45:16.990Z,42.43
2019-04-23T02:47:31.927Z,42.53
2019-04-23T02:49:17.621Z,42.45
2019-04-23T02:50:30.799Z,42.43
2019-04-23T02:51:21.633Z,42.90
2019-04-23T02:52:33.626Z,42.39
2019-04-23T02:54:26.160Z,42.46
2019-04-23T02:55:21.914Z,42.48
2019-04-23T02:56:22.034Z,42.50
2019-04-23T02:57:16.194Z,42.39
2019-04-23T02:58:19.211Z,42.49
2019-04-23T03:03:35.434Z,42.46
2019-04-23T03:04:32.779Z,42.47
2019-04-23T03:05:19.767Z,42.71
2019-04-23T03:06:22.803Z,42.49
2019-04-23T03:07:26.716Z,42.69
2019-04-23T03:08:20.321Z,42.73
2019-04-23T03:09:23.680Z,42.37
2019-04-23T03:10:18.443Z,42.46
2019-04-23T03:13:44.003Z,42.71
2019-04-23T03:14:17.973Z,42.51
2019-04-23T03:15:39.745Z,42.34
2019-04-23T03:16:26.947Z,42.48
2019-04-23T03:17:13.121Z,42.52
2019-04-23T03:19:15.363Z,42.53
2019-04-23T03:20:21.186Z,42.50
2019-04-23T03:23:24.915Z,42.10
2019-04-23T03:24:31.162Z,42.18
2019-04-23T03:25:21.614Z,42.09
2019-04-23T03:28:25.320Z,42.07
2019-04-23T03:29:19.543Z,42.27
2019-04-23T03:32:52.019Z,42.23
2019-04-23T03:35:17.777Z,42.50
2019-04-23T03:38:36.311Z,42.52
2019-04-23T03:39:02.413Z,42.16
2019-04-23T03:40:13.624Z,42.26
2019-04-23T03:41:21.618Z,42.52
2019-04-23T03:43:19.818Z,42.41
2019-04-23T03:44:14.435Z,42.60
2019-04-23T03:46:24.390Z,42.64
2019-04-23T03:47:18.803Z,42.57
2019-04-23T03:49:12.929Z,42.33
2019-04-23T03:50:23.682Z,42.53
2019-04-23T03:51:11.805Z,42.42
2019-04-23T03:52:25.436Z,42.50
2019-04-23T03:53:29.929Z,42.48
2019-04-23T03:54:26.305Z,42.44
2019-04-23T03:55:18.513Z,42.57
2019-04-23T03:56:24.147Z,42.58
2019-04-23T03:58:21.271Z,42.57
2019-04-23T03:59:20.471Z,42.60
2019-04-23T04:01:23.203Z,42.53
2019-04-23T04:02:31.406Z,42.58
2019-04-23T04:04:25.171Z,42.80
2019-04-23T04:05:25.167Z,42.63
2019-04-23T04:06:29.275Z,42.54
2019-04-23T04:07:19.986Z,42.74
2019-04-23T04:09:34.837Z,42.97
2019-04-23T04:11:16.363Z,42.38
2019-04-23T04:12:21.718Z,42.98
2019-04-23T04:13:22.191Z,42.86
2019-04-23T04:14:36.815Z,42.63
2019-04-23T04:15:31.220Z,42.59
2019-04-23T04:17:15.964Z,42.45
2019-04-23T04:19:24.581Z,42.41
2019-04-23T04:21:31.246Z,43.35
2019-04-23T04:22:29.318Z,42.49
2019-04-23T04:24:22.336Z,42.56
2019-04-23T04:27:12.419Z,42.57
2019-04-23T04:28:21.142Z,42.53
2019-04-23T04:29:20.855Z,42.48
2019-04-23T04:31:16.240Z,42.29
2019-04-23T04:32:09.829Z,42.79
2019-04-23T04:33:29.797Z,42.44
2019-04-23T04:34:40.091Z,42.44
2019-04-23T04:36:28.088Z,42.66
2019-04-23T04:37:48.516Z,42.44
2019-04-23T04:38:25.736Z,42.86
2019-04-23T04:39:25.136Z,42.45
2019-04-23T04:40:23.253Z,42.44
2019-04-23T04:41:13.541Z,44.16
2019-04-23T04:43:22.393Z,42.73
2019-04-23T04:45:23.254Z,42.71
2019-04-23T04:46:34.560Z,42.72
2019-04-23T04:47:21.371Z,42.49
2019-04-23T04:48:11.957Z,42.79
2019-04-23T04:49:27.345Z,42.67
2019-04-23T04:51:18.843Z,42.42
2019-04-23T04:53:26.849Z,42.47
2019-04-23T04:53:47.778Z,42.66
2019-04-23T04:55:23.484Z,42.46
2019-04-23T04:56:27.972Z,42.65
2019-04-23T04:57:20.444Z,43.27
2019-04-23T04:58:32.451Z,42.56
2019-04-23T05:00:20.274Z,42.64
2019-04-23T05:01:18.588Z,42.71
2019-04-23T05:04:19.886Z,42.63
2019-04-23T05:05:47.848Z,42.51
2019-04-23T05:07:24.245Z,42.37
2019-04-23T05:11:17.360Z,42.35
2019-04-23T05:12:19.061Z,42.27
2019-04-23T05:13:30.207Z,42.54
2019-04-23T05:14:13.364Z,42.50
2019-04-23T05:15:08.936Z,42.74
2019-04-23T05:16:14.013Z,42.29
2019-04-23T05:17:21.369Z,42.47
2019-04-23T05:20:13.167Z,42.43
2019-04-23T05:21:12.151Z,42.29
2019-04-23T05:23:19.353Z,42.55
2019-04-23T05:24:08.903Z,42.33
2019-04-23T05:25:05.543Z,42.45
2019-04-23T05:26:08.470Z,42.41
2019-04-23T05:27:28.346Z,42.36
2019-04-23T05:29:14.938Z,42.40
2019-04-23T05:31:17.627Z,42.33
2019-04-23T05:32:04.247Z,42.31
2019-04-23T05:33:13.363Z,42.21
2019-04-23T05:34:24.659Z,42.34
2019-04-23T05:35:13.340Z,43.13
2019-04-23T05:37:14.807Z,42.64
2019-04-23T05:38:18.617Z,42.70
2019-04-23T05:39:15.785Z,42.43
2019-04-23T05:40:15.950Z,42.98
2019-04-23T05:41:16.619Z,42.53
2019-04-23T05:42:11.218Z,42.76
2019-04-23T05:43:12.678Z,42.65
2019-04-23T05:44:17.558Z,42.36
2019-04-23T05:45:08.388Z,42.28
2019-04-23T05:46:19.899Z,42.47
2019-04-23T05:47:16.027Z,42.73
2019-04-23T05:48:16.215Z,42.42
2019-04-23T05:49:12.704Z,42.65
2019-04-23T05:50:21.326Z,42.86
2019-04-23T05:51:16.255Z,42.72
2019-04-23T05:52:10.905Z,42.92
2019-04-23T05:54:12.836Z,42.82
2019-04-23T05:55:07.565Z,42.55
2019-04-23T05:56:11.747Z,42.57
2019-04-23T05:57:06.671Z,42.55
2019-04-23T05:58:19.937Z,43.29
2019-04-23T05:59:12.960Z,42.86
2019-04-23T06:00:09.227Z,42.71
2019-04-23T06:01:19.879Z,42.65
2019-04-23T06:02:07.871Z,42.53
2019-04-23T06:03:14.836Z,42.51
2019-04-23T06:04:17.586Z,42.65
2019-04-23T06:05:12.587Z,42.99
2019-04-23T06:06:11.221Z,42.30
2019-04-23T06:07:22.163Z,42.59
2019-04-23T06:08:11.956Z,42.63
2019-04-23T06:11:08.581Z,43.17
2019-04-23T06:12:10.092Z,42.47
2019-04-23T06:13:04.706Z,43.67
2019-04-23T06:14:17.377Z,42.50
2019-04-23T06:15:29.062Z,42.23
2019-04-23T06:16:16.551Z,42.48
2019-04-23T06:17:15.254Z,42.42
2019-04-23T06:19:14.363Z,42.51
2019-04-23T06:20:09.354Z,42.64
2019-04-23T06:21:10.222Z,42.52
2019-04-23T06:22:28.823Z,42.59
2019-04-23T06:23:14.490Z,42.35
2019-04-23T06:24:21.128Z,42.52
2019-04-23T06:25:14.983Z,42.81
2019-04-23T06:26:24.284Z,42.51
2019-04-23T06:27:13.565Z,42.20
2019-04-23T06:29:19.385Z,42.57
2019-04-23T06:30:08.369Z,42.30
2019-04-23T06:31:10.902Z,42.50
2019-04-23T06:32:07.943Z,42.52
2019-04-23T06:33:14.661Z,42.33
2019-04-23T06:34:14.120Z,42.78
2019-04-23T06:35:04.830Z,42.78
2019-04-23T06:36:12.490Z,42.27
2019-04-23T06:37:14.704Z,42.52
2019-04-23T06:39:07.176Z,42.44
2019-04-23T06:40:10.117Z,42.50
2019-04-23T06:41:11.733Z,42.48
2019-04-23T06:42:08.200Z,42.92
2019-04-23T06:43:14.358Z,42.45
2019-04-23T06:44:18.009Z,42.82
2019-04-23T06:45:04.716Z,42.19
2019-04-23T06:46:05.450Z,42.55
2019-04-23T06:47:08.302Z,42.65
2019-04-23T06:48:20.268Z,42.40
2019-04-23T06:49:09.389Z,42.84
2019-04-23T06:50:06.648Z,43.18
2019-04-23T06:51:15.999Z,42.69
2019-04-23T06:53:20.992Z,42.68
2019-04-23T06:54:12.271Z,43.41
2019-04-23T06:55:09.127Z,42.47
2019-04-23T06:56:12.591Z,42.72
2019-04-23T06:57:14.628Z,42.81
2019-04-23T06:58:15.102Z,42.77
2019-04-23T06:59:11.997Z,43.27
2019-04-23T07:00:07.921Z,42.79
2019-04-23T07:01:04.891Z,43.44
2019-04-23T07:02:11.902Z,43.08
2019-04-23T07:03:18.189Z,43.12
2019-04-23T07:04:15.070Z,44.34
2019-04-23T07:05:14.080Z,43.25
2019-04-23T07:07:31.536Z,42.88
2019-04-23T07:08:11.814Z,43.25
2019-04-23T07:09:10.645Z,43.45
2019-04-23T07:10:03.939Z,42.88
2019-04-23T07:11:18.847Z,43.36
2019-04-23T07:12:08.834Z,42.85
2019-04-23T07:13:10.856Z,42.92
2019-04-23T07:14:28.682Z,43.46
2019-04-23T07:15:33.754Z,42.91
2019-04-23T07:16:12.834Z,42.89
2019-04-23T07:17:21.231Z,42.86
2019-04-23T07:18:07.541Z,42.95
2019-04-23T07:19:09.635Z,43.00
2019-04-23T07:20:08.298Z,43.13
2019-04-23T07:21:16.929Z,43.28
2019-04-23T07:22:14.672Z,43.08
2019-04-23T07:23:13.556Z,43.11
2019-04-23T07:24:11.295Z,42.83
2019-04-23T07:25:08.148Z,42.95
2019-04-23T07:26:17.512Z,42.95
2019-04-23T07:27:10.325Z,42.97
2019-04-23T07:28:13.426Z,42.90
2019-04-23T07:29:10.678Z,42.73
2019-04-23T07:30:23.741Z,42.72
2019-04-23T07:31:19.060Z,42.94
2019-04-23T07:32:05.601Z,42.89
2019-04-23T07:33:11.935Z,42.67
2019-04-23T07:34:20.318Z,43.03
2019-04-23T07:36:08.548Z,43.60
2019-04-23T07:37:05.181Z,43.31
2019-04-23T07:38:13.386Z,43.14
2019-04-23T07:40:27.193Z,43.17
2019-04-23T07:41:18.595Z,43.16
2019-04-23T07:43:09.154Z,43.17
2019-04-23T07:44:24.237Z,43.29
2019-04-23T07:45:14.248Z,43.79
2019-04-23T07:46:16.740Z,43.50
2019-04-23T07:47:19.469Z,43.45
2019-04-23T07:49:11.448Z,43.48
2019-04-23T07:50:22.913Z,44.02
2019-04-23T07:51:06.496Z,44.07
2019-04-23T07:53:13.298Z,43.95
2019-04-23T07:55:21.534Z,44.24
2019-04-23T07:56:07.661Z,43.96
2019-04-23T07:57:15.374Z,43.88
2019-04-23T07:58:14.312Z,44.00
2019-04-23T07:59:14.260Z,43.96
2019-04-23T08:00:18.301Z,44.05
2019-04-23T08:01:03.647Z,43.84
2019-04-23T08:02:14.500Z,44.07
2019-04-23T08:03:17.358Z,44.19
2019-04-23T08:04:09.183Z,44.14
2019-04-23T08:05:15.682Z,43.98
2019-04-23T08:06:05.922Z,43.97
2019-04-23T08:07:07.055Z,44.52
2019-04-23T08:08:09.197Z,44.47
2019-04-23T08:09:09.210Z,44.08
2019-04-23T08:10:10.135Z,44.18
2019-04-23T08:12:28.918Z,44.05
2019-04-23T08:14:08.599Z,44.23
2019-04-23T08:15:13.345Z,44.50
2019-04-23T08:16:18.360Z,44.33
2019-04-23T08:17:14.405Z,44.26
2019-04-23T08:18:13.666Z,44.12
2019-04-23T08:20:09.485Z,44.22
2019-04-23T08:21:10.589Z,44.31
2019-04-23T08:22:23.678Z,44.33
2019-04-23T08:23:14.010Z,44.61
2019-04-23T08:24:06.576Z,44.59
2019-04-23T08:25:26.335Z,44.30
2019-04-23T08:26:19.458Z,44.44
2019-04-23T08:27:12.863Z,44.33
2019-04-23T08:28:13.520Z,44.25
2019-04-23T08:29:12.827Z,44.40
2019-04-23T08:30:06.404Z,44.39
2019-04-23T08:31:08.581Z,44.29
2019-04-23T08:33:23.446Z,44.40
2019-04-23T08:34:18.654Z,44.31
2019-04-23T08:36:12.257Z,44.17
2019-04-23T08:37:09.027Z,44.51
2019-04-23T08:39:15.736Z,44.29
2019-04-23T08:40:15.051Z,44.25
2019-04-23T08:41:22.445Z,44.22
2019-04-23T08:42:27.083Z,44.55
2019-04-23T08:43:26.120Z,44.66
2019-04-23T08:44:16.805Z,44.91
2019-04-23T08:46:07.620Z,44.69
2019-04-23T08:47:26.153Z,44.64
2019-04-23T08:48:17.036Z,44.49
2019-04-23T08:49:15.602Z,44.58
2019-04-23T08:50:05.929Z,44.52
2019-04-23T08:51:25.973Z,44.45
2019-04-23T08:52:11.804Z,44.48
2019-04-23T08:53:28.238Z,44.50
2019-04-23T08:54:15.258Z,44.24
2019-04-23T08:55:13.827Z,44.32
2019-04-23T08:56:08.988Z,44.40
2019-04-23T08:57:08.728Z,44.36
2019-04-23T08:58:11.375Z,44.48
2019-04-23T08:59:21.323Z,44.54
2019-04-23T09:00:09.110Z,44.51
2019-04-23T09:03:11.138Z,44.44
2019-04-23T09:04:08.961Z,44.38
2019-04-23T09:05:10.722Z,45.55
2019-04-23T09:09:13.184Z,44.73
2019-04-23T09:10:15.374Z,44.39
2019-04-23T09:11:20.034Z,44.35
2019-04-23T09:12:08.273Z,44.47
2019-04-23T09:13:36.814Z,44.50
2019-04-23T09:13:59.502Z,44.97
2019-04-23T09:15:07.686Z,44.80
2019-04-23T09:16:22.150Z,44.94
2019-04-23T09:17:13.212Z,45.32
2019-04-23T09:18:09.759Z,44.96
2019-04-23T09:20:17.947Z,44.95
2019-04-23T09:21:12.683Z,45.03
2019-04-23T09:22:14.214Z,44.95
2019-04-23T09:23:08.114Z,44.84
2019-04-23T09:24:03.714Z,45.00
2019-04-23T09:25:11.668Z,44.88
2019-04-23T09:26:02.525Z,44.75
2019-04-23T09:27:16.209Z,44.79
2019-04-23T09:28:09.476Z,44.89
2019-04-23T09:29:04.598Z,44.79
2019-04-23T09:31:11.679Z,44.84
2019-04-23T09:33:14.303Z,44.99
2019-04-23T09:34:09.606Z,44.89
2019-04-23T09:36:06.462Z,44.81
2019-04-23T09:37:13.376Z,44.73
2019-04-23T09:38:07.175Z,44.73
2019-04-23T09:40:21.665Z,44.71
2019-04-23T09:41:16.698Z,44.86
2019-04-23T09:42:11.329Z,44.91
2019-04-23T09:45:06.911Z,44.74
2019-04-23T09:46:15.157Z,44.65
2019-04-23T09:47:16.024Z,44.63
2019-04-23T09:49:16.176Z,44.64
2019-04-23T09:50:08.324Z,44.57
2019-04-23T09:51:10.324Z,44.55
2019-04-23T09:54:09.173Z,44.58
2019-04-23T09:55:13.708Z,44.79
2019-04-23T09:56:06.683Z,44.66
2019-04-23T09:57:04.183Z,44.43
2019-04-23T09:58:15.414Z,44.40
2019-04-23T09:59:15.671Z,44.42
2019-04-23T10:00:13.139Z,44.42
2019-04-23T10:01:12.007Z,44.52
2019-04-23T10:02:03.567Z,44.47
2019-04-23T10:03:01.255Z,44.55
2019-04-23T10:03:57.611Z,44.46
2019-04-23T10:04:57.486Z,44.46
2019-04-23T10:05:51.021Z,44.48
2019-04-23T10:06:58.391Z,44.47
2019-04-23T10:07:51.917Z,44.62
2019-04-23T10:08:49.039Z,45.09
2019-04-23T10:09:42.402Z,44.69
2019-04-23T10:10:40.505Z,45.01
2019-04-23T10:11:40.960Z,45.02
2019-04-23T10:12:40.011Z,45.48
2019-04-23T10:13:40.463Z,45.04
2019-04-23T10:14:51.307Z,45.13
2019-04-23T10:15:42.505Z,45.23
2019-04-23T10:16:41.307Z,45.20
2019-04-23T10:17:40.308Z,45.16
2019-04-23T10:18:39.360Z,45.25
2019-04-23T10:19:40.618Z,45.22
2019-04-23T10:20:40.435Z,45.19
2019-04-23T10:21:41.743Z,45.31
2019-04-23T10:22:39.539Z,45.24
2019-04-23T10:23:41.276Z,45.31
2019-04-23T10:24:39.275Z,45.34
2019-04-23T10:25:40.283Z,45.22
2019-04-23T10:26:40.054Z,45.29
2019-04-23T10:27:39.249Z,45.18
2019-04-23T10:28:40.302Z,45.22
2019-04-23T10:29:41.506Z,45.39
2019-04-23T10:30:38.968Z,45.29
2019-04-23T10:31:40.057Z,45.21
2019-04-23T10:32:40.052Z,45.23
2019-04-23T10:33:39.900Z,45.12
2019-04-23T10:34:56.293Z,45.11
2019-04-23T10:35:50.729Z,45.14
2019-04-23T10:36:42.329Z,45.76
2019-04-23T10:37:46.840Z,45.12
2019-04-23T10:38:49.505Z,45.12
2019-04-23T10:39:43.705Z,45.09
2019-04-23T10:40:45.895Z,45.20
2019-04-23T10:41:44.902Z,45.04
2019-04-23T10:42:43.871Z,45.42
2019-04-23T10:43:43.958Z,45.12
2019-04-23T10:44:41.217Z,45.23
2019-04-23T10:45:59.254Z,45.34
2019-04-23T10:47:08.528Z,45.20
2019-04-23T10:50:05.088Z,45.55
2019-04-23T10:51:04.470Z,45.35
2019-04-23T10:52:13.066Z,45.48
2019-04-23T10:53:19.205Z,45.38
2019-04-23T10:54:24.023Z,45.65
2019-04-23T10:55:09.082Z,45.40
2019-04-23T10:56:14.211Z,45.36
2019-04-23T10:57:03.932Z,45.53
2019-04-23T10:58:11.829Z,45.61
2019-04-23T10:59:15.001Z,45.49
2019-04-23T10:59:58.614Z,45.65
2019-04-23T11:02:29.042Z,45.60
2019-04-23T11:03:24.722Z,45.61
2019-04-23T11:04:21.710Z,45.73
2019-04-23T11:05:26.674Z,45.61
2019-04-23T11:06:17.601Z,45.62
2019-04-23T11:07:20.823Z,45.77
2019-04-23T11:08:10.698Z,45.49
2019-04-23T11:09:27.740Z,45.25
2019-04-23T11:10:23.876Z,45.12
2019-04-23T11:12:12.429Z,45.53
2019-04-23T11:13:12.193Z,45.23
2019-04-23T11:14:11.059Z,45.23
2019-04-23T11:16:44.821Z,45.24
2019-04-23T11:18:12.232Z,45.31
2019-04-23T11:20:24.262Z,45.61
2019-04-23T11:21:14.635Z,45.50
2019-04-23T11:22:28.148Z,45.53
2019-04-23T11:23:27.659Z,45.55
2019-04-23T11:24:20.657Z,45.81
2019-04-23T11:25:21.690Z,45.66
2019-04-23T11:26:17.420Z,45.61
2019-04-23T11:27:21.084Z,45.60
2019-04-23T11:28:13.555Z,45.49
2019-04-23T11:29:15.516Z,45.52
2019-04-23T11:30:23.192Z,45.74
2019-04-23T11:31:13.050Z,45.67
2019-04-23T11:32:29.486Z,45.90
2019-04-23T11:33:15.737Z,45.54
2019-04-23T11:34:19.339Z,45.59
2019-04-23T11:35:23.853Z,45.60
2019-04-23T11:36:41.193Z,45.57
2019-04-23T11:37:12.304Z,45.57
2019-04-23T11:38:34.993Z,45.55
2019-04-23T11:39:12.822Z,45.90
2019-04-23T11:41:09.629Z,45.60
2019-04-23T11:43:14.833Z,45.63
2019-04-23T11:45:19.267Z,45.67
2019-04-23T11:46:21.567Z,45.73
2019-04-23T11:47:12.506Z,45.67
2019-04-23T11:50:42.153Z,46.56
2019-04-23T11:51:07.234Z,45.69
2019-04-23T11:51:43.694Z,45.60
2019-04-23T11:53:10.346Z,45.88
2019-04-23T11:54:10.578Z,45.66
2019-04-23T11:55:18.119Z,45.57
2019-04-23T11:56:18.893Z,45.19
2019-04-23T11:58:16.574Z,45.22
2019-04-23T11:59:15.805Z,45.17
2019-04-23T12:01:23.054Z,45.28
2019-04-23T12:02:07.256Z,45.23
2019-04-23T12:03:02.513Z,45.32
2019-04-23T12:06:12.394Z,45.35
2019-04-23T12:07:14.101Z,45.27
2019-04-23T12:08:18.800Z,45.93
2019-04-23T12:09:09.669Z,45.29
2019-04-23T12:10:17.136Z,45.24
2019-04-23T12:11:41.053Z,45.19
2019-04-23T12:12:11.158Z,45.26
2019-04-23T12:13:12.284Z,45.29
2019-04-23T12:15:11.715Z,45.37
2019-04-23T12:16:10.564Z,44.73
2019-04-23T12:17:22.630Z,44.49
2019-04-23T12:18:12.941Z,44.52
2019-04-23T12:19:33.288Z,44.94
2019-04-23T12:20:26.750Z,46.20
2019-04-23T12:21:13.377Z,45.04
2019-04-23T12:23:25.978Z,44.73
2019-04-23T12:24:17.335Z,44.57
2019-04-23T12:25:21.591Z,44.68
2019-04-23T12:26:17.056Z,44.70
2019-04-23T12:27:22.577Z,44.61
2019-04-23T12:28:08.592Z,44.70
2019-04-23T12:29:16.935Z,44.66
2019-04-23T12:30:17.265Z,44.87
2019-04-23T12:31:08.794Z,44.70
2019-04-23T12:32:27.393Z,44.55
2019-04-23T12:33:11.691Z,45.36
2019-04-23T12:34:26.172Z,44.51
2019-04-23T12:36:17.793Z,45.12
2019-04-23T12:37:19.620Z,44.82
2019-04-23T12:38:08.864Z,44.57
2019-04-23T12:39:11.110Z,44.63
2019-04-23T12:41:07.082Z,44.44
2019-04-23T12:42:19.741Z,44.62
2019-04-23T12:43:12.900Z,44.56
2019-04-23T12:44:08.151Z,44.91
2019-04-23T12:45:14.395Z,44.68
2019-04-23T12:46:03.885Z,44.82
2019-04-23T12:47:13.955Z,44.94
2019-04-23T12:49:21.333Z,44.80
2019-04-23T12:51:08.161Z,44.62
2019-04-23T12:52:14.296Z,44.66
2019-04-23T12:53:10.584Z,44.56
2019-04-23T12:54:24.401Z,44.57
2019-04-23T12:55:19.696Z,44.56
2019-04-23T12:56:12.806Z,44.66
2019-04-23T12:57:14.946Z,44.70
2019-04-23T12:58:09.941Z,44.70
2019-04-23T12:59:09.471Z,44.54
2019-04-23T13:01:05.336Z,44.63
2019-04-23T13:02:22.917Z,44.59
2019-04-23T13:03:28.751Z,44.74
2019-04-23T13:04:10.922Z,44.88
2019-04-23T13:05:12.157Z,44.52
2019-04-23T13:05:59.289Z,44.59
2019-04-23T13:07:09.043Z,44.36
2019-04-23T13:08:13.631Z,44.46
2019-04-23T13:09:19.786Z,44.70
2019-04-23T13:10:15.926Z,44.51
2019-04-23T13:11:06.832Z,44.54
2019-04-23T13:12:12.466Z,44.45
2019-04-23T13:13:16.648Z,44.47
2019-04-23T13:14:08.537Z,44.38
2019-04-23T13:15:10.731Z,44.46
2019-04-23T13:16:12.264Z,44.58
2019-04-23T13:17:39.759Z,44.39
2019-04-23T13:18:27.329Z,44.48
2019-04-23T13:19:16.870Z,44.33
2019-04-23T13:20:09.549Z,44.57
2019-04-23T13:21:36.016Z,44.40
2019-04-23T13:22:09.982Z,44.68
2019-04-23T13:23:12.130Z,44.40
2019-04-23T13:24:09.351Z,44.45
2019-04-23T13:25:09.878Z,44.45
2019-04-23T13:25:59.582Z,44.35
2019-04-23T13:27:15.645Z,44.68
2019-04-23T13:28:12.961Z,44.57
2019-04-23T13:29:11.384Z,44.70
2019-04-23T13:31:12.188Z,44.40
2019-04-23T13:32:12.899Z,44.72
2019-04-23T13:33:20.809Z,44.56
2019-04-23T13:34:04.324Z,44.57
2019-04-23T13:35:25.714Z,44.40
2019-04-23T13:37:11.320Z,44.35
2019-04-23T13:39:13.715Z,44.55
2019-04-23T13:40:08.701Z,44.66
2019-04-23T13:42:19.766Z,44.50
2019-04-23T13:43:14.061Z,44.47
2019-04-23T13:44:00.161Z,44.40
2019-04-23T13:45:18.376Z,44.43
2019-04-23T13:47:13.681Z,44.48
2019-04-23T13:48:13.501Z,44.50
2019-04-23T13:49:07.495Z,44.48
2019-04-23T13:50:22.200Z,45.77
2019-04-23T13:51:14.226Z,44.90
2019-04-23T13:52:27.082Z,44.47
2019-04-23T13:54:09.739Z,44.51
2019-04-23T13:55:11.174Z,44.51
2019-04-23T13:56:10.938Z,44.38
2019-04-23T13:59:30.289Z,44.42
2019-04-23T14:00:06.754Z,44.61
2019-04-23T14:02:17.554Z,44.56
2019-04-23T14:03:09.765Z,44.56
2019-04-23T14:04:14.133Z,44.60
2019-04-23T14:05:04.859Z,44.40
2019-04-23T14:07:17.438Z,44.61
2019-04-23T14:08:13.242Z,44.47
2019-04-23T14:09:14.415Z,44.58
2019-04-23T14:10:22.553Z,44.52
2019-04-23T14:11:14.088Z,44.52
2019-04-23T14:12:09.065Z,44.55
2019-04-23T14:13:31.199Z,44.57
2019-04-23T14:15:12.305Z,44.65
2019-04-23T14:16:10.353Z,44.45
2019-04-23T14:17:18.668Z,44.38
2019-04-23T14:18:36.406Z,44.52
2019-04-23T14:19:04.494Z,44.51
2019-04-23T14:20:11.955Z,44.47
2019-04-23T14:21:17.193Z,44.57
2019-04-23T14:22:21.177Z,44.46
2019-04-23T14:25:10.191Z,44.49
2019-04-23T14:26:17.001Z,44.49
2019-04-23T14:27:18.141Z,44.58
2019-04-23T14:29:04.428Z,44.63
2019-04-23T14:30:16.572Z,44.60
2019-04-23T14:32:35.244Z,44.54
2019-04-23T14:33:17.612Z,44.73
2019-04-23T14:34:11.564Z,44.53
2019-04-23T14:35:25.240Z,44.47
2019-04-23T14:36:07.541Z,44.45
2019-04-23T14:38:27.445Z,44.29
2019-04-23T14:39:06.007Z,44.64
2019-04-23T14:40:15.286Z,44.46
2019-04-23T14:44:08.198Z,45.44
2019-04-23T14:45:18.815Z,44.47
2019-04-23T14:46:27.104Z,44.31
2019-04-23T14:47:16.781Z,44.28
2019-04-23T14:48:08.953Z,44.34
2019-04-23T14:49:11.896Z,44.27
2019-04-23T14:51:16.658Z,44.54
2019-04-23T14:52:08.996Z,44.42
2019-04-23T14:54:04.787Z,44.53
2019-04-23T14:55:35.093Z,44.54
2019-04-23T14:56:14.166Z,44.79
2019-04-23T14:58:17.544Z,44.26
2019-04-23T15:00:10.717Z,44.32
2019-04-23T15:01:21.655Z,51.23
2019-04-23T15:02:13.799Z,58.02
2019-04-23T15:03:25.344Z,52.46
2019-04-23T15:04:02.739Z,47.59
2019-04-23T15:05:13.507Z,46.67
2019-04-23T15:06:20.132Z,45.98
2019-04-23T15:08:04.024Z,46.97
2019-04-23T15:09:19.767Z,47.07
2019-04-23T15:11:21.354Z,45.73
2019-04-23T15:13:10.826Z,44.85
2019-04-23T15:14:10.063Z,44.99
2019-04-23T15:15:13.902Z,45.66
2019-04-23T15:17:07.676Z,45.02
2019-04-23T15:18:13.195Z,44.61
2019-04-23T15:20:09.580Z,44.72
2019-04-23T15:21:34.249Z,44.72
2019-04-23T15:22:13.520Z,44.71
2019-04-23T15:23:25.021Z,44.58
2019-04-23T15:24:14.189Z,44.93
2019-04-23T15:25:19.404Z,44.75